M/V Manukai — WRGD — position and weather

sailwx.info

Track history (hours):
 
Tides and Currents Weather Stations Pressure Air Temp Water Temp Dewpoint Dewpoint Depression Visibility Wind Speed Wind Dir Waves Ship Positions

M/V Manukai

More information available from US FCC via Universal Licensing System and Coast Guard Vessel Documentation Center.

Last reported at 2014-Jul-31 12:00 UTC. Time now 2014-Aug-01 03:53 UTC.
Position N 42°12' W 146°42'.

Type: Ship (hazmat cat A). MMSI: 369296000.

Wind from 280 at 11 knots

Waves 1.0 meters (3 feet), 6 second period

Barometer 1017.5 mb
Air temperature 15.6 ° C
Visibility: greater than 5.4 NM
Dewpoint 12.7 ° C
Water temperature 18.3 ° C

Date/timePositionNaut miles runAvg speedWind from/ knotsBaromVisibWave heightAir tempDewpointWater temp
2014-Jul-31 12:00N 42°12' W 146°42'80722.4 280 / 111017.5 5.4 1.015.612.718.3
2014-Jul-30 00:00N 44°48' W 164°54'   150 / 51024.5 1.015.513.914.9
2014-Jul-27 12:00N 45°00' E 163°12'   060 / 51005.0 0.513.211.512.9
2014-Jul-23 12:24N 31°15' E 121°59'1214.5
2014-Jul-23 11:32N 31°18' E 121°46'1010.4
2014-Jul-23 10:33N 31°23' E 121°35'0 0.3
2014-Jul-23 09:33N 31°23' E 121°35'0 0.0
2014-Jul-23 08:33N 31°23' E 121°35'0 0.0
2014-Jul-23 07:03N 31°23' E 121°35'0 0.0
2014-Jul-23 06:30N 31°23' E 121°35'0 0.0
2014-Jul-23 05:30N 31°23' E 121°35'0 0.0
2014-Jul-23 04:18N 31°23' E 121°35'0 0.0
2014-Jul-23 03:24N 31°23' E 121°35'0 0.0
2014-Jul-23 02:30N 31°23' E 121°35'0 0.0
2014-Jul-23 01:29N 31°23' E 121°35'0 0.0
2014-Jul-23 00:23N 31°23' E 121°35'0 0.0
2014-Jul-22 23:33N 31°23' E 121°35'0 0.0
2014-Jul-22 22:33N 31°23' E 121°35'0 0.0
2014-Jul-22 21:29N 31°23' E 121°35'0 0.1
2014-Jul-22 20:29N 31°23' E 121°34'0 0.0
2014-Jul-22 19:23N 31°23' E 121°35'0 0.0
2014-Jul-22 18:24N 31°23' E 121°35'0 0.0
2014-Jul-22 17:24N 31°23' E 121°35'0 0.0
2014-Jul-22 16:26N 31°23' E 121°35'1 1.0
2014-Jul-22 15:33N 31°23' E 121°36'4 4.2
2014-Jul-22 14:33N 31°21' E 121°40'2110.6
2014-Jul-22 12:33N 31°14' E 122°04'1111.4
2014-Jul-22 11:33N 31°08' E 122°15'60 5.7
2014-Jul-22 01:09N 30°48' E 123°20'6322.0
2014-Jul-21 22:17N 29°52' E 122°46'1520.6
2014-Jul-21 21:33N 29°40' E 122°36'1717.1
2014-Jul-21 20:33N 29°46' E 122°18'312.6
2014-Jul-21 20:18N 29°48' E 122°15'912.5
2014-Jul-21 19:33N 29°55' E 122°08'1312.9
2014-Jul-21 18:33N 29°57' E 121°53'3 2.6
2014-Jul-21 17:33N 29°57' E 121°50'0 0.0
2014-Jul-21 16:29N 29°57' E 121°50'0 0.0
2014-Jul-21 15:33N 29°57' E 121°50'0 0.0
2014-Jul-21 14:32N 29°57' E 121°50'0 0.0
2014-Jul-21 13:28N 29°57' E 121°50'0 0.0
2014-Jul-21 12:28N 29°57' E 121°50'  
Track history (hours):
 
Tides and Currents Weather Stations Pressure Air Temp Water Temp Dewpoint Dewpoint Depression Visibility Wind Speed Wind Dir Waves Ship Positions

M/V Manukai

More information available from US FCC via Universal Licensing System and Coast Guard Vessel Documentation Center.

Last reported at 2014-Jul-31 12:00 UTC. Time now 2014-Aug-01 03:53 UTC.
Position N 42°12' W 146°42'.

Type: Ship (hazmat cat A). MMSI: 369296000.

Wind from 280 at 11 knots

Waves 1.0 meters (3 feet), 6 second period

Barometer 1017.5 mb
Air temperature 15.6 ° C
Visibility: greater than 5.4 NM
Dewpoint 12.7 ° C
Water temperature 18.3 ° C

Date/timePositionNaut miles runAvg speedWind from/ knotsBaromVisibWave heightAir tempDewpointWater temp
2014-Jul-31 12:00N 42°12' W 146°42'80722.4 280 / 111017.5 5.4 1.015.612.718.3
2014-Jul-30 00:00N 44°48' W 164°54'   150 / 51024.5 1.015.513.914.9
2014-Jul-27 12:00N 45°00' E 163°12'   060 / 51005.0 0.513.211.512.9
2014-Jul-23 12:24N 31°15' E 121°59'1214.5
2014-Jul-23 11:32N 31°18' E 121°46'1010.4
2014-Jul-23 10:33N 31°23' E 121°35'0 0.3
2014-Jul-23 09:33N 31°23' E 121°35'0 0.0
2014-Jul-23 08:33N 31°23' E 121°35'0 0.0
2014-Jul-23 07:03N 31°23' E 121°35'0 0.0
2014-Jul-23 06:30N 31°23' E 121°35'0 0.0
2014-Jul-23 05:30N 31°23' E 121°35'0 0.0
2014-Jul-23 04:18N 31°23' E 121°35'0 0.0
2014-Jul-23 03:24N 31°23' E 121°35'0 0.0
2014-Jul-23 02:30N 31°23' E 121°35'0 0.0
2014-Jul-23 01:29N 31°23' E 121°35'0 0.0
2014-Jul-23 00:23N 31°23' E 121°35'0 0.0
2014-Jul-22 23:33N 31°23' E 121°35'0 0.0
2014-Jul-22 22:33N 31°23' E 121°35'0 0.0
2014-Jul-22 21:29N 31°23' E 121°35'0 0.1
2014-Jul-22 20:29N 31°23' E 121°34'0 0.0
2014-Jul-22 19:23N 31°23' E 121°35'0 0.0
2014-Jul-22 18:24N 31°23' E 121°35'0 0.0
2014-Jul-22 17:24N 31°23' E 121°35'0 0.0
2014-Jul-22 16:26N 31°23' E 121°35'1 1.0
2014-Jul-22 15:33N 31°23' E 121°36'4 4.2
2014-Jul-22 14:33N 31°21' E 121°40'2110.6
2014-Jul-22 12:33N 31°14' E 122°04'1111.4
2014-Jul-22 11:33N 31°08' E 122°15'60 5.7
2014-Jul-22 01:09N 30°48' E 123°20'6322.0
2014-Jul-21 22:17N 29°52' E 122°46'1520.6
2014-Jul-21 21:33N 29°40' E 122°36'1717.1
2014-Jul-21 20:33N 29°46' E 122°18'312.6
2014-Jul-21 20:18N 29°48' E 122°15'912.5
2014-Jul-21 19:33N 29°55' E 122°08'1312.9
2014-Jul-21 18:33N 29°57' E 121°53'3 2.6
2014-Jul-21 17:33N 29°57' E 121°50'0 0.0
2014-Jul-21 16:29N 29°57' E 121°50'0 0.0
2014-Jul-21 15:33N 29°57' E 121°50'0 0.0
2014-Jul-21 14:32N 29°57' E 121°50'0 0.0
2014-Jul-21 13:28N 29°57' E 121°50'0 0.0
2014-Jul-21 12:28N 29°57' E 121°50'  

Dump ship's entire track history